Terminal Aerodrome Forecast
Issued by NWS

Home | Current Version | Previous Version | Text Only | Print | Product List | Glossary On
Versions: 1 2 3 4 5 6 7 8 9 10 11 12 13 14 15 16 17 18 19 20 21
000
FTUS46 KMFR 030226 AAA
TAFOTH
TAF AMD
KOTH 030226Z 0302/0324 VRB04KT P6SM OVC008
     FM030700 VRB02KT P6SM OVC010
     FM031700 32010KT P6SM OVC020
     FM032000 33013G20KT P6SM SCT020 BKN030=

USA.gov is the U.S. government's official web portal to all federal, state and local government web resources and services.